Time;durP1;ratioP1;P1;durP2;ratioP2;P2;SDS_P1;SDS_P2;PMS_P1;PMS_P2;Temp;Humidity;BMP_temperature;BMP_pressure;BME280_temperature;BME280_humidity;BME280_pressure;Samples;Min_cycle;Max_cycle;Signal;HPM_P1;HPM_P2
2022/08/28 00:01:00;;;;;;;12.00;7.60;;;17.30;99.90;;;;;;4409154;28;657431;-88
2022/08/28 00:03:47;;;;;;;13.00;7.60;;;17.20;99.90;;;;;;4388520;28;658405;-87
2022/08/28 00:06:34;;;;;;;9.40;7.60;;;17.20;99.90;;;;;;4412413;28;657634;-88
2022/08/28 00:09:22;;;;;;;9.73;7.27;;;17.00;99.90;;;;;;4389160;28;656694;-88
2022/08/28 00:12:09;;;;;;;17.13;7.60;;;17.10;99.90;;;;;;4408264;28;656527;-87
2022/08/28 00:14:58;;;;;;;12.30;7.10;;;17.10;99.90;;;;;;4385317;28;657504;-87
2022/08/28 00:17:45;;;;;;;16.30;7.90;;;17.10;99.90;;;;;;4388650;28;658087;-88
2022/08/28 00:20:33;;;;;;;15.80;7.33;;;17.10;99.90;;;;;;4411491;28;658516;-88
2022/08/28 00:23:21;;;;;;;12.20;7.20;;;17.10;99.90;;;;;;4392331;28;658235;-88
2022/08/28 00:26:08;;;;;;;21.73;7.83;;;17.10;99.90;;;;;;4408591;28;657925;-88
2022/08/28 00:28:54;;;;;;;16.27;7.20;;;17.00;99.90;;;;;;4392040;28;657415;-88
2022/08/28 00:31:43;;;;;;;17.07;7.40;;;17.10;99.90;;;;;;4408571;28;657548;-88
2022/08/28 00:34:32;;;;;;;13.57;7.83;;;17.00;99.90;;;;;;4394291;28;657567;-88
2022/08/28 00:37:19;;;;;;;14.13;8.13;;;17.00;99.90;;;;;;4415261;28;657286;-89
2022/08/28 00:40:08;;;;;;;22.13;8.07;;;17.00;99.90;;;;;;4386517;28;657478;-88
2022/08/28 00:42:55;;;;;;;12.03;7.20;;;17.00;99.90;;;;;;4389541;28;657498;-88
2022/08/28 00:45:42;;;;;;;18.73;8.03;;;17.00;99.90;;;;;;4409101;28;657962;-88
2022/08/28 00:48:31;;;;;;;18.97;7.57;;;16.90;99.90;;;;;;4412969;28;657435;-88
2022/08/28 00:54:23;;;;;;;13.83;7.10;;;17.00;99.90;;;;;;4390386;28;658113;-88
2022/08/28 00:57:13;;;;;;;23.23;7.57;;;17.00;99.90;;;;;;4391503;28;657559;-88
2022/08/28 01:00:00;;;;;;;16.53;7.00;;;17.00;99.90;;;;;;4395869;28;657602;-88
2022/08/28 01:02:47;;;;;;;12.83;7.07;;;17.00;99.90;;;;;;4410761;28;657742;-88
2022/08/28 01:05:36;;;;;;;14.70;7.40;;;17.00;99.90;;;;;;4414695;28;657303;-88
2022/08/28 01:08:23;;;;;;;15.63;7.70;;;16.90;99.90;;;;;;4386928;28;658262;-88
2022/08/28 01:11:10;;;;;;;13.83;7.00;;;16.80;99.90;;;;;;4390020;28;657472;-88
2022/08/28 01:13:58;;;;;;;18.63;7.60;;;16.90;99.90;;;;;;4412513;28;657898;-89
2022/08/28 01:16:48;;;;;;;17.42;7.65;;;16.90;99.90;;;;;;4387742;28;657868;-89
2022/08/28 01:19:37;;;;;;;10.47;7.90;;;16.90;99.90;;;;;;4399862;28;657917;-88
2022/08/28 01:22:29;;;;;;;21.97;8.60;;;16.90;99.90;;;;;;4414957;28;657312;-88
2022/08/28 01:25:20;;;;;;;16.48;7.72;;;16.90;99.90;;;;;;4384175;28;657411;-89
2022/08/28 01:28:09;;;;;;;15.40;8.00;;;16.90;99.90;;;;;;4383829;28;658761;-88
2022/08/28 01:30:56;;;;;;;16.50;8.17;;;16.90;99.90;;;;;;4385334;28;657734;-89
2022/08/28 01:33:43;;;;;;;19.27;7.90;;;16.90;99.90;;;;;;4410606;28;657892;-88
2022/08/28 01:36:31;;;;;;;18.37;8.30;;;16.90;99.90;;;;;;4390230;28;657652;-88
2022/08/28 01:39:19;;;;;;;17.27;8.23;;;16.80;99.90;;;;;;4408721;28;658808;-88
2022/08/28 01:42:08;;;;;;;16.13;8.60;;;16.90;99.90;;;;;;4388805;28;657882;-89
2022/08/28 01:44:55;;;;;;;16.57;8.80;;;16.90;99.90;;;;;;4394788;28;657352;-88
2022/08/28 01:47:43;;;;;;;16.97;8.27;;;16.80;99.90;;;;;;4413753;28;657329;-88
2022/08/28 01:50:31;;;;;;;17.40;8.90;;;16.90;99.90;;;;;;4389174;28;657437;-88
2022/08/28 01:53:19;;;;;;;12.83;8.43;;;16.90;99.90;;;;;;4413456;28;658062;-88
2022/08/28 01:56:08;;;;;;;26.63;8.97;;;17.00;99.90;;;;;;4391632;28;657607;-88
2022/08/28 01:58:57;;;;;;;18.93;8.20;;;17.00;99.90;;;;;;4385627;28;657348;-88
2022/08/28 02:01:44;;;;;;;20.30;8.30;;;17.00;99.90;;;;;;4413267;28;657547;-88
2022/08/28 02:04:31;;;;;;;19.60;8.97;;;17.10;99.90;;;;;;4384985;28;658019;-88
2022/08/28 02:07:18;;;;;;;22.53;8.60;;;17.00;99.90;;;;;;4407853;28;658415;-88
2022/08/28 02:10:06;;;;;;;17.83;8.70;;;17.00;99.90;;;;;;4387352;28;657380;-87
2022/08/28 02:12:54;;;;;;;19.17;7.60;;;17.10;99.90;;;;;;4410892;28;658477;-87
2022/08/28 02:15:43;;;;;;;16.47;8.00;;;17.10;99.90;;;;;;4389794;28;657521;-88
2022/08/28 02:18:30;;;;;;;20.43;8.67;;;17.10;99.90;;;;;;4387414;28;657645;-88
2022/08/28 02:21:17;;;;;;;16.10;8.33;;;17.00;99.90;;;;;;4411141;28;658124;-88
2022/08/28 02:24:05;;;;;;;18.07;9.10;;;17.00;99.90;;;;;;4411482;28;657645;-88
2022/08/28 02:26:52;;;;;;;20.07;7.97;;;17.00;99.90;;;;;;4385055;28;658301;-89
2022/08/28 02:29:39;;;;;;;10.60;8.20;;;17.00;99.90;;;;;;4411494;28;657627;-89
2022/08/28 02:32:28;;;;;;;13.70;8.03;;;17.00;99.90;;;;;;4384450;28;657390;-88
2022/08/28 02:35:16;;;;;;;14.20;8.33;;;17.00;99.90;;;;;;4381622;28;657471;-89
2022/08/28 02:38:03;;;;;;;17.57;8.47;;;16.80;99.90;;;;;;4404434;28;657936;-89
2022/08/28 02:40:51;;;;;;;19.37;8.80;;;16.70;99.90;;;;;;4388192;28;657895;-89
2022/08/28 02:43:38;;;;;;;18.27;7.93;;;16.80;99.90;;;;;;4410668;28;658361;-88
2022/08/28 02:46:26;;;;;;;22.50;8.70;;;16.90;99.90;;;;;;4389781;28;657637;-88
2022/08/28 02:49:14;;;;;;;16.30;8.77;;;16.80;99.90;;;;;;4403598;28;658315;-88
2022/08/28 02:52:01;;;;;;;16.70;8.40;;;16.80;99.90;;;;;;4381742;28;657969;-88
2022/08/28 02:54:49;;;;;;;21.83;9.70;;;16.70;99.90;;;;;;4407437;28;657748;-89
2022/08/28 02:57:36;;;;;;;14.53;9.17;;;16.60;99.90;;;;;;4387148;28;657496;-89
2022/08/28 03:00:24;;;;;;;15.20;8.63;;;16.60;99.90;;;;;;4407091;28;658202;-88
2022/08/28 03:03:11;;;;;;;20.30;8.30;;;16.60;99.90;;;;;;4384616;28;657593;-88
2022/08/28 03:06:00;;;;;;;15.73;8.30;;;16.60;99.90;;;;;;4404746;28;658610;-87
2022/08/28 03:08:47;;;;;;;16.43;8.57;;;16.60;99.90;;;;;;4390284;28;657411;-87
2022/08/28 03:11:35;;;;;;;18.50;8.30;;;16.70;99.90;;;;;;4406176;28;657756;-88
2022/08/28 03:14:23;;;;;;;15.60;9.17;;;16.60;99.90;;;;;;4406825;28;658406;-86
2022/08/28 03:17:10;;;;;;;12.30;8.13;;;16.60;99.90;;;;;;4384285;28;657372;-88
2022/08/28 03:19:57;;;;;;;13.37;8.33;;;16.50;99.90;;;;;;4372225;28;658555;-89
2022/08/28 03:25:51;;;;;;;14.93;8.57;;;16.40;99.90;;;;;;4385446;28;657818;-90
2022/08/28 03:28:40;;;;;;;13.17;8.33;;;16.50;99.90;;;;;;4407369;28;658320;-89
2022/08/28 03:31:28;;;;;;;14.17;8.83;;;16.50;99.90;;;;;;4378038;28;657677;-89
2022/08/28 03:34:15;;;;;;;17.03;9.07;;;16.40;99.90;;;;;;4368810;28;657513;-88
2022/08/28 03:37:03;;;;;;;13.43;9.33;;;16.40;99.90;;;;;;4375203;28;658321;-88
2022/08/28 03:39:51;;;;;;;15.10;7.87;;;16.30;99.90;;;;;;4396065;28;657524;-89
2022/08/28 03:42:39;;;;;;;14.60;8.17;;;16.30;99.90;;;;;;4408801;28;657898;-88
2022/08/28 03:45:26;;;;;;;17.70;8.23;;;16.20;99.90;;;;;;4373404;28;657526;-88
2022/08/28 03:48:13;;;;;;;23.73;8.03;;;16.20;99.90;;;;;;4389653;28;657966;-87
2022/08/28 03:51:01;;;;;;;12.53;9.13;;;16.20;99.90;;;;;;4385461;28;657370;-87
2022/08/28 03:53:48;;;;;;;22.97;8.50;;;16.30;99.90;;;;;;4411522;28;657780;-87
2022/08/28 03:56:36;;;;;;;16.63;8.27;;;16.40;99.90;;;;;;4382007;28;657763;-89
2022/08/28 03:59:24;;;;;;;13.83;8.87;;;16.40;99.90;;;;;;4405183;28;658553;-90
2022/08/28 04:02:11;;;;;;;19.00;10.30;;;16.40;99.90;;;;;;4384388;28;657527;-89
2022/08/28 04:04:58;;;;;;;26.60;9.97;;;16.40;99.90;;;;;;4399301;28;658795;-89
2022/08/28 04:07:45;;;;;;;22.97;9.03;;;16.60;99.90;;;;;;4385527;28;657844;-89
2022/08/28 04:10:32;;;;;;;15.67;9.97;;;16.50;99.90;;;;;;4403355;28;657709;-89
2022/08/28 04:13:21;;;;;;;17.03;10.33;;;16.60;99.90;;;;;;4407756;28;657078;-88
2022/08/28 04:16:10;;;;;;;20.73;10.47;;;16.50;99.90;;;;;;4382337;28;659196;-89
2022/08/28 04:18:58;;;;;;;22.53;13.87;;;16.60;99.90;;;;;;4376519;28;658940;-89
2022/08/28 04:21:45;;;;;;;26.43;10.03;;;16.60;99.90;;;;;;4398670;28;659130;-89
2022/08/28 04:24:33;;;;;;;20.27;11.97;;;16.80;99.90;;;;;;4398300;28;659216;-87
2022/08/28 04:27:20;;;;;;;30.53;16.83;;;16.80;99.90;;;;;;4392241;28;659005;-88
2022/08/28 04:30:09;;;;;;;23.30;13.93;;;17.00;99.90;;;;;;4403542;28;658657;-87
2022/08/28 04:32:57;;;;;;;21.20;11.33;;;17.10;99.90;;;;;;4375282;28;658805;-88
2022/08/28 04:35:46;;;;;;;16.50;10.87;;;17.10;99.90;;;;;;4390343;28;658583;-88
2022/08/28 04:38:35;;;;;;;20.73;9.80;;;17.20;99.90;;;;;;4383314;28;659002;-89
2022/08/28 04:41:22;;;;;;;20.83;12.40;;;17.20;99.90;;;;;;4385475;28;658561;-88
2022/08/28 04:44:10;;;;;;;20.20;13.27;;;17.20;99.90;;;;;;4400996;28;658618;-88
2022/08/28 04:46:59;;;;;;;22.43;11.33;;;17.20;99.90;;;;;;4406422;28;658965;-87
2022/08/28 04:49:46;;;;;;;19.40;12.73;;;17.30;99.90;;;;;;4384376;28;659000;-88
2022/08/28 04:52:33;;;;;;;31.53;18.07;;;17.30;99.90;;;;;;4404748;28;659733;-88
2022/08/28 04:55:20;;;;;;;30.67;16.97;;;17.40;99.90;;;;;;4385007;28;658531;-88
2022/08/28 04:58:07;;;;;;;26.43;13.97;;;17.60;99.90;;;;;;4396204;28;659227;-89
2022/08/28 05:00:55;;;;;;;32.23;17.23;;;17.70;99.90;;;;;;4400128;28;658846;-88
2022/08/28 05:03:44;;;;;;;31.03;17.03;;;17.80;99.90;;;;;;4399609;28;658279;-88
2022/08/28 05:06:32;;;;;;;28.63;16.53;;;17.90;99.90;;;;;;4385398;28;658897;-89
2022/08/28 05:09:19;;;;;;;24.70;15.90;;;18.00;99.90;;;;;;4409062;28;658481;-89
2022/08/28 05:12:07;;;;;;;30.07;16.23;;;18.10;99.90;;;;;;4387242;28;658465;-89
2022/08/28 05:14:54;;;;;;;31.20;15.33;;;18.20;99.90;;;;;;4368325;28;658816;-90
2022/08/28 05:17:41;;;;;;;26.40;15.90;;;18.30;99.90;;;;;;4379261;28;659304;-89
2022/08/28 05:20:29;;;;;;;24.33;15.07;;;18.40;99.90;;;;;;4408603;28;658667;-90
2022/08/28 05:23:17;;;;;;;24.53;14.97;;;18.50;99.90;;;;;;4382970;28;659244;-89
2022/08/28 05:26:04;;;;;;;29.20;17.87;;;18.60;99.90;;;;;;4382709;28;658258;-89
2022/08/28 05:28:51;;;;;;;37.53;25.50;;;18.70;99.90;;;;;;4379425;28;658675;-89
2022/08/28 05:31:39;;;;;;;121.87;57.77;;;18.70;99.90;;;;;;4408371;28;658910;-89
2022/08/28 05:34:26;;;;;;;55.60;35.33;;;18.70;99.90;;;;;;4387164;28;659896;-90
2022/08/28 05:37:15;;;;;;;54.37;34.13;;;18.70;99.90;;;;;;4401923;28;659210;-90
2022/08/28 05:40:02;;;;;;;52.97;36.17;;;18.70;99.90;;;;;;4432009;23;659386;-90
2022/08/28 05:42:51;;;;;;;48.73;33.57;;;18.70;99.90;;;;;;4426856;28;658101;-90
2022/08/28 05:45:39;;;;;;;54.27;31.33;;;18.80;99.90;;;;;;4425221;28;659056;-90
2022/08/28 05:48:28;;;;;;;41.27;29.63;;;19.00;99.90;;;;;;4402139;28;658859;-90
2022/08/28 05:51:18;;;;;;;43.63;27.53;;;19.20;99.90;;;;;;4393639;28;658765;-90
2022/08/28 05:54:09;;;;;;;46.67;25.93;;;19.10;99.90;;;;;;4332522;28;658539;-90
2022/08/28 05:56:56;;;;;;;43.50;23.57;;;19.10;99.90;;;;;;4286389;28;658480;-90
2022/08/28 05:59:44;;;;;;;36.67;22.70;;;19.20;99.90;;;;;;4419957;28;659035;-90
2022/08/28 06:02:31;;;;;;;37.85;20.77;;;19.40;99.90;;;;;;4423257;28;659180;-89
2022/08/28 06:05:18;;;;;;;37.33;20.83;;;19.40;99.90;;;;;;4412964;28;659849;-90
2022/08/28 06:08:06;;;;;;;33.50;20.13;;;19.60;99.90;;;;;;4409867;28;658632;-90
2022/08/28 06:10:55;;;;;;;32.03;21.13;;;19.70;99.90;;;;;;4418732;28;659083;-89
2022/08/28 06:13:42;;;;;;;37.97;23.17;;;19.70;99.90;;;;;;4403543;28;658576;-89
2022/08/28 06:16:30;;;;;;;34.80;22.23;;;19.70;99.90;;;;;;4422819;28;658536;-90
2022/08/28 06:19:17;;;;;;;28.83;18.57;;;19.90;99.90;;;;;;4409322;28;658379;-89
2022/08/28 06:22:05;;;;;;;32.90;20.00;;;19.80;99.90;;;;;;4424373;28;658571;-89
2022/08/28 06:24:52;;;;;;;32.27;19.90;;;20.10;99.90;;;;;;4389627;28;659002;-89
2022/08/28 06:27:41;;;;;;;22.97;13.53;;;20.40;99.90;;;;;;4421118;28;658274;-89
2022/08/28 06:30:28;;;;;;;29.17;13.37;;;20.60;99.90;;;;;;4406448;28;659056;-90
2022/08/28 06:33:16;;;;;;;24.07;12.03;;;20.50;99.90;;;;;;4398899;28;658783;-89
2022/08/28 06:36:04;;;;;;;23.93;11.67;;;20.70;99.90;;;;;;4420707;28;658934;-89
2022/08/28 06:38:51;;;;;;;18.53;11.67;;;20.40;99.90;;;;;;4405833;28;658872;-89
2022/08/28 06:41:41;;;;;;;17.63;12.07;;;20.60;99.90;;;;;;4430083;28;659297;-89
2022/08/28 06:44:31;;;;;;;24.20;12.30;;;20.80;99.90;;;;;;4414257;28;659225;-89
2022/08/28 06:47:18;;;;;;;19.77;11.57;;;21.00;99.90;;;;;;4401849;28;659002;-90
2022/08/28 06:50:06;;;;;;;23.08;11.43;;;21.20;99.90;;;;;;4413887;28;658698;-89
2022/08/28 06:52:53;;;;;;;17.37;11.40;;;21.30;99.90;;;;;;4442857;28;658951;-89
2022/08/28 06:55:40;;;;;;;19.03;11.67;;;21.40;99.90;;;;;;4407734;28;658599;-89
2022/08/28 06:58:28;;;;;;;19.53;11.30;;;21.40;99.90;;;;;;4417166;28;659533;-90
2022/08/28 07:01:21;;;;;;;19.83;11.63;;;21.60;99.90;;;;;;4403514;28;658809;-90
2022/08/28 07:04:09;;;;;;;21.90;10.50;;;21.60;99.90;;;;;;4383884;28;659427;-90
2022/08/28 07:06:57;;;;;;;19.77;10.43;;;21.90;99.90;;;;;;4424319;28;658991;-89
2022/08/28 07:09:44;;;;;;;19.93;11.67;;;22.10;99.90;;;;;;4447956;28;658346;-90
2022/08/28 07:12:31;;;;;;;20.77;11.77;;;22.00;99.90;;;;;;4389392;28;658854;-89
2022/08/28 07:15:18;;;;;;;17.53;11.63;;;22.20;99.90;;;;;;4433393;28;659429;-89
2022/08/28 07:18:07;;;;;;;18.00;11.00;;;22.20;99.90;;;;;;4414711;28;659394;-88
2022/08/28 07:20:57;;;;;;;16.93;10.57;;;22.30;99.90;;;;;;4423068;28;658984;-89
2022/08/28 07:23:44;;;;;;;18.90;11.03;;;22.50;99.90;;;;;;4409576;28;658371;-89
2022/08/28 07:26:32;;;;;;;16.90;11.40;;;22.20;99.90;;;;;;4407682;28;658821;-89
2022/08/28 07:29:19;;;;;;;16.85;10.07;;;22.30;99.90;;;;;;4421016;28;658363;-89
2022/08/28 07:32:07;;;;;;;15.83;10.80;;;22.60;99.90;;;;;;4388200;28;658844;-90
2022/08/28 07:34:56;;;;;;;19.63;10.13;;;22.80;99.90;;;;;;4422996;28;658660;-89
2022/08/28 07:37:43;;;;;;;13.93;8.77;;;22.70;99.90;;;;;;4394724;28;658808;-89
2022/08/28 07:40:31;;;;;;;15.87;8.37;;;23.00;99.90;;;;;;4395052;28;657364;-88
2022/08/28 07:46:23;;;;;;;16.93;7.77;;;23.70;99.90;;;;;;4387443;28;658062;-89
2022/08/28 07:49:10;;;;;;;19.30;8.20;;;23.70;99.90;;;;;;4406825;28;657696;-88
2022/08/28 07:51:59;;;;;;;12.67;8.57;;;24.00;99.90;;;;;;4416959;28;657895;-89
2022/08/28 07:54:46;;;;;;;16.53;7.93;;;23.60;99.90;;;;;;4400924;28;658016;-89
2022/08/28 07:57:34;;;;;;;12.53;7.77;;;23.70;99.90;;;;;;4389519;28;659061;-90
2022/08/28 08:00:21;;;;;;;14.07;7.90;;;24.20;99.90;;;;;;4385472;28;657712;-89
2022/08/28 08:03:09;;;;;;;14.30;7.93;;;24.20;99.90;;;;;;4419794;28;658372;-89
2022/08/28 08:05:56;;;;;;;17.53;7.53;;;24.30;99.90;;;;;;4398893;28;657498;-90
2022/08/28 08:08:46;;;;;;;15.60;7.17;;;24.50;99.90;;;;;;4423832;28;658193;-90
2022/08/28 08:11:33;;;;;;;11.87;7.20;;;24.70;99.90;;;;;;4387992;28;658202;-90
2022/08/28 08:14:20;;;;;;;12.77;6.63;;;24.60;99.90;;;;;;4398558;28;657982;-89
2022/08/28 08:17:07;;;;;;;13.20;6.87;;;24.60;99.90;;;;;;4431111;28;657572;-90
2022/08/28 08:19:55;;;;;;;16.20;7.60;;;24.00;99.90;;;;;;4412471;28;657572;-91
2022/08/28 08:22:42;;;;;;;11.60;7.57;;;24.20;99.90;;;;;;4419929;28;657451;-90
2022/08/28 08:25:31;;;;;;;13.73;8.00;;;24.80;99.90;;;;;;4410316;28;657662;-91
2022/08/28 08:28:21;;;;;;;14.27;7.27;;;25.10;99.90;;;;;;4400548;28;658830;-90
2022/08/28 08:31:14;;;;;;;11.80;7.38;;;25.50;99.90;;;;;;4395903;28;657858;-90
2022/08/28 08:34:02;;;;;;;11.70;7.63;;;25.80;99.90;;;;;;4417772;28;657386;-90
2022/08/28 08:36:49;;;;;;;15.60;7.18;;;25.80;99.90;;;;;;4430693;28;657335;-90
2022/08/28 08:39:37;;;;;;;13.82;7.90;;;26.00;99.90;;;;;;4397630;28;657616;-91
2022/08/28 08:42:30;;;;;;;15.80;7.63;;;25.90;99.90;;;;;;4420567;28;657972;-90
2022/08/28 08:45:17;;;;;;;11.25;6.65;;;25.30;99.90;;;;;;4406220;28;657739;-89
2022/08/28 08:48:12;;;;;;;14.38;7.53;;;24.90;99.90;;;;;;4415984;28;657808;-90
2022/08/28 08:51:02;;;;;;;9.75;6.85;;;24.90;99.90;;;;;;4399420;28;657527;-91
2022/08/28 08:53:54;;;;;;;16.30;7.57;;;24.90;99.90;;;;;;4397727;28;656559;-90
2022/08/28 08:56:42;;;;;;;16.63;6.80;;;25.40;99.90;;;;;;4381665;28;657466;-91
2022/08/28 08:59:31;;;;;;;12.57;6.63;;;25.60;99.90;;;;;;4425595;28;657498;-89
2022/08/28 09:02:21;;;;;;;11.45;7.20;;;25.80;99.90;;;;;;4348436;28;658315;-92
2022/08/28 09:05:10;;;;;;;14.07;7.45;;;24.90;99.90;;;;;;4404085;28;658945;-91
2022/08/28 09:08:00;;;;;;;14.13;8.02;;;25.40;99.90;;;;;;4409549;28;657877;-91
2022/08/28 09:10:51;;;;;;;11.55;7.07;;;25.60;99.90;;;;;;4375015;28;658277;-91
2022/08/28 09:13:46;;;;;;;13.15;7.68;;;25.80;99.90;;;;;;4391053;28;657727;-90
2022/08/28 09:16:37;;;;;;;14.27;7.60;;;25.20;99.90;;;;;;4410303;28;657557;-89
2022/08/28 09:19:25;;;;;;;13.75;7.63;;;24.30;99.90;;;;;;4418209;28;657461;-90
2022/08/28 09:22:13;;;;;;;11.95;7.68;;;24.30;99.90;;;;;;4436136;28;657262;-90
2022/08/28 09:25:00;;;;;;;12.40;7.95;;;24.30;99.90;;;;;;4398537;28;657665;-90
2022/08/28 09:27:51;;;;;;;21.13;8.60;;;24.40;99.90;;;;;;4430498;28;658020;-91
2022/08/28 09:30:40;;;;;;;18.30;8.90;;;24.40;99.90;;;;;;4397637;28;657721;-90
2022/08/28 09:33:30;;;;;;;16.52;8.38;;;23.90;99.90;;;;;;4387359;28;657606;-91
2022/08/28 09:36:27;;;;;;;12.85;7.43;;;24.10;99.90;;;;;;4389368;28;658365;-90
2022/08/28 09:39:16;;;;;;;14.50;7.70;;;23.70;99.90;;;;;;4409388;28;657504;-90
2022/08/28 09:45:20;;;;;;;19.80;8.47;;;24.00;99.90;;;;;;4400697;28;657357;-90
2022/08/28 09:48:20;;;;;;;16.20;8.73;;;24.20;99.90;;;;;;4373405;28;658460;-89
2022/08/28 09:51:09;;;;;;;16.83;7.22;;;24.30;99.90;;;;;;4407539;28;657880;-90
2022/08/28 09:53:59;;;;;;;15.25;7.78;;;24.60;99.90;;;;;;4405762;28;657803;-89
2022/08/28 09:56:47;;;;;;;14.23;7.67;;;24.30;99.90;;;;;;4401877;28;657433;-89
2022/08/28 09:59:34;;;;;;;13.53;7.67;;;24.10;99.90;;;;;;4415514;28;657826;-90
2022/08/28 10:02:25;;;;;;;15.80;7.73;;;24.10;99.90;;;;;;4407245;28;657269;-89
2022/08/28 10:05:15;;;;;;;17.10;8.13;;;24.00;99.90;;;;;;4413062;28;658236;-90
2022/08/28 10:08:07;;;;;;;14.60;7.85;;;24.30;99.90;;;;;;4385904;28;658376;-90
2022/08/28 10:10:55;;;;;;;14.13;7.50;;;24.30;99.90;;;;;;4409522;28;657443;-90
2022/08/28 10:13:46;;;;;;;13.23;7.63;;;24.30;99.90;;;;;;4399880;28;657660;-90
2022/08/28 10:16:39;;;;;;;14.07;7.33;;;24.40;99.90;;;;;;4399486;28;657938;-89
2022/08/28 10:19:33;;;;;;;17.10;9.03;;;24.30;99.90;;;;;;4415782;28;657850;-89
2022/08/28 10:22:27;;;;;;;10.52;7.90;;;24.30;99.90;;;;;;4388075;28;658465;-90
2022/08/28 10:25:21;;;;;;;12.80;7.97;;;24.60;99.90;;;;;;4407365;28;657607;-90
2022/08/28 10:28:17;;;;;;;16.35;8.20;;;24.40;99.90;;;;;;4409820;28;657476;-90
2022/08/28 10:31:07;;;;;;;15.05;7.60;;;24.70;99.90;;;;;;4395156;28;657525;-89
2022/08/28 10:34:03;;;;;;;13.18;7.50;;;24.70;99.90;;;;;;4401568;28;657493;-89
2022/08/28 10:36:53;;;;;;;13.32;7.85;;;24.80;99.90;;;;;;4409845;28;657378;-89
2022/08/28 10:39:47;;;;;;;18.90;7.82;;;25.00;99.90;;;;;;4399824;28;657566;-89
2022/08/28 10:42:36;;;;;;;12.32;7.60;;;25.50;99.90;;;;;;4404594;28;657592;-89
2022/08/28 10:45:24;;;;;;;16.52;8.00;;;26.30;99.90;;;;;;4394983;28;657523;-90
2022/08/28 10:48:16;;;;;;;10.88;7.70;;;26.10;99.90;;;;;;4392206;28;657877;-90
2022/08/28 10:51:06;;;;;;;13.18;8.07;;;26.00;99.90;;;;;;4398605;28;657742;-89
2022/08/28 10:53:54;;;;;;;14.48;8.25;;;26.10;99.90;;;;;;4427147;28;658021;-90
2022/08/28 10:56:43;;;;;;;13.93;7.78;;;26.00;99.90;;;;;;4407605;28;657946;-90
2022/08/28 10:59:32;;;;;;;14.77;8.82;;;25.60;99.90;;;;;;4405862;28;657809;-89
2022/08/28 11:02:21;;;;;;;14.75;9.65;;;25.40;99.90;;;;;;4415328;28;657611;-89
2022/08/28 11:05:09;;;;;;;16.50;9.93;;;25.20;99.90;;;;;;4438629;28;658238;-90
2022/08/28 11:07:58;;;;;;;24.40;12.23;;;25.00;99.90;;;;;;4401910;28;657828;-89
2022/08/28 11:10:48;;;;;;;17.48;11.80;;;24.70;99.90;;;;;;4397349;28;658920;-89
2022/08/28 11:13:46;;;;;;;17.13;11.35;;;24.50;99.90;;;;;;4422036;28;658764;-89
2022/08/28 11:16:38;;;;;;;16.90;11.35;;;24.60;99.90;;;;;;4399328;28;658372;-90
2022/08/28 11:19:36;;;;;;;16.15;11.52;;;24.60;99.90;;;;;;4418801;28;658689;-89
2022/08/28 11:22:24;;;;;;;17.85;12.20;;;24.30;99.90;;;;;;4407302;28;659065;-89
2022/08/28 11:25:15;;;;;;;20.65;13.10;;;24.20;99.90;;;;;;4408557;28;658793;-89
2022/08/28 11:28:18;;;;;;;22.30;12.27;;;24.00;99.90;;;;;;4404333;28;658766;-90
2022/08/28 11:31:34;;;;;;;21.52;13.25;;;24.20;99.90;;;;;;4365198;28;659173;-89
2022/08/28 11:35:02;;;;;;;19.95;13.25;;;24.60;99.90;;;;;;4407957;28;659292;-89
2022/08/28 11:37:50;;;;;;;19.23;13.73;;;24.60;99.90;;;;;;4395802;28;658323;-90
2022/08/28 11:40:54;;;;;;;20.88;12.95;;;24.40;99.90;;;;;;4404087;28;659474;-89
2022/08/28 11:43:42;;;;;;;20.83;12.77;;;24.90;99.90;;;;;;4399660;28;658650;-90
2022/08/28 11:46:31;;;;;;;22.38;13.30;;;24.70;99.90;;;;;;4438102;28;658512;-90
2022/08/28 11:49:44;;;;;;;22.80;12.95;;;24.60;99.90;;;;;;4408494;28;659029;-90
2022/08/28 11:52:40;;;;;;;19.35;13.43;;;25.00;99.90;;;;;;4388820;28;659168;-89
2022/08/28 11:55:32;;;;;;;27.83;14.35;;;25.00;99.90;;;;;;4387698;28;658913;-89
2022/08/28 11:58:21;;;;;;;19.30;13.40;;;24.90;99.90;;;;;;4392887;28;658537;-90
2022/08/28 12:01:09;;;;;;;19.55;12.68;;;24.80;99.90;;;;;;4393998;28;659168;-89
2022/08/28 12:03:58;;;;;;;19.60;13.43;;;25.20;99.90;;;;;;4390119;28;658460;-90
2022/08/28 12:06:53;;;;;;;19.20;12.65;;;25.80;99.90;;;;;;4405657;28;658700;-90
2022/08/28 12:09:46;;;;;;;22.37;12.17;;;26.30;99.90;;;;;;4397471;28;659007;-90
2022/08/28 12:12:52;;;;;;;18.85;13.35;;;26.50;99.90;;;;;;4389223;28;659003;-90
2022/08/28 12:15:41;;;;;;;16.83;12.27;;;26.50;99.90;;;;;;4397380;28;658917;-90
2022/08/28 12:19:04;;;;;;;16.88;12.60;;;26.60;99.90;;;;;;4403586;28;659406;-90
2022/08/28 12:21:51;;;;;;;18.75;12.20;;;26.80;99.90;;;;;;4380502;28;659119;-90
2022/08/28 12:24:44;;;;;;;20.75;13.13;;;27.30;99.90;;;;;;4435445;28;659176;-90
2022/08/28 12:27:32;;;;;;;18.42;13.35;;;27.10;99.90;;;;;;4383498;28;658471;-90
2022/08/28 12:30:27;;;;;;;21.35;13.50;;;27.20;99.90;;;;;;4420388;28;658222;-90
2022/08/28 12:33:16;;;;;;;18.20;13.20;;;26.80;99.90;;;;;;4406503;28;658412;-90
2022/08/28 12:36:04;;;;;;;20.73;13.45;;;26.60;99.90;;;;;;4388408;28;658232;-91
2022/08/28 12:38:51;;;;;;;21.23;13.27;;;26.80;99.90;;;;;;4402478;28;658520;-90
2022/08/28 12:41:40;;;;;;;24.95;13.88;;;27.40;99.90;;;;;;4420698;28;658748;-90
2022/08/28 12:44:28;;;;;;;21.35;13.15;;;26.90;99.90;;;;;;4395505;28;659271;-91
2022/08/28 12:47:17;;;;;;;22.52;13.20;;;26.80;99.90;;;;;;4409737;28;659277;-90
2022/08/28 12:50:22;;;;;;;21.15;13.02;;;26.80;99.90;;;;;;4422289;28;658557;-91
2022/08/28 12:53:11;;;;;;;15.67;12.10;;;25.90;99.90;;;;;;4408841;28;658587;-90
2022/08/28 12:55:59;;;;;;;22.77;12.25;;;26.20;99.90;;;;;;4420745;28;658754;-90
2022/08/28 12:58:47;;;;;;;20.00;12.43;;;26.30;99.90;;;;;;4390179;28;658446;-90
2022/08/28 13:01:35;;;;;;;18.40;12.13;;;25.80;99.90;;;;;;4426481;28;658792;-91
2022/08/28 13:04:28;;;;;;;18.33;12.15;;;25.90;99.90;;;;;;4416760;28;659122;-90
2022/08/28 13:07:17;;;;;;;18.42;11.32;;;26.70;99.90;;;;;;4376708;28;658468;-90
2022/08/28 13:10:07;;;;;;;18.13;11.65;;;26.60;99.90;;;;;;4427759;28;658753;-87
2022/08/28 13:12:55;;;;;;;14.02;9.57;;;26.60;99.90;;;;;;4405685;28;658673;-87
2022/08/28 13:15:50;;;;;;;12.73;9.60;;;26.40;99.90;;;;;;4406868;28;658132;-86
2022/08/28 13:18:42;;;;;;;19.30;10.05;;;26.40;99.90;;;;;;4403153;28;657748;-87
2022/08/28 13:21:34;;;;;;;17.25;8.90;;;25.80;99.90;;;;;;4403004;28;659073;-87
2022/08/28 13:24:38;;;;;;;13.43;9.60;;;25.90;99.90;;;;;;4408707;28;658090;-86
2022/08/28 13:27:26;;;;;;;15.35;10.98;;;25.50;99.90;;;;;;4407382;28;657676;-87
2022/08/28 13:30:23;;;;;;;17.52;11.00;;;25.20;99.90;;;;;;4428828;28;659181;-89
2022/08/28 13:33:20;;;;;;;15.55;9.95;;;24.90;99.90;;;;;;4388228;28;658643;-87
2022/08/28 13:36:20;;;;;;;16.10;10.30;;;24.30;99.90;;;;;;4408719;28;657667;-88
2022/08/28 13:39:08;;;;;;;15.07;9.27;;;23.80;99.90;;;;;;4402246;28;658554;-88
2022/08/28 13:41:57;;;;;;;16.33;9.87;;;23.40;99.90;;;;;;4406600;28;657482;-88
2022/08/28 13:44:47;;;;;;;13.50;9.35;;;23.00;99.90;;;;;;4426258;28;657522;-89
2022/08/28 13:47:34;;;;;;;16.48;9.32;;;23.10;99.90;;;;;;4401380;28;657548;-89
2022/08/28 13:50:23;;;;;;;11.93;8.88;;;23.10;99.90;;;;;;4407124;28;657865;-87
2022/08/28 13:53:10;;;;;;;13.10;9.07;;;23.10;99.90;;;;;;4411587;28;657685;-87
2022/08/28 13:55:59;;;;;;;19.43;8.47;;;22.80;99.90;;;;;;4430148;28;657890;-87
2022/08/28 13:58:46;;;;;;;14.07;8.63;;;22.70;99.90;;;;;;4405966;28;658024;-87
2022/08/28 14:04:35;;;;;;;17.67;9.07;;;22.70;99.90;;;;;;4397994;28;657552;-90
2022/08/28 14:07:23;;;;;;;13.33;9.20;;;22.60;99.90;;;;;;4399836;28;658739;-92
2022/08/28 14:10:13;;;;;;;12.77;9.40;;;22.50;99.90;;;;;;4396396;28;657909;-92
2022/08/28 14:13:00;;;;;;;15.55;9.10;;;22.50;99.90;;;;;;4396375;28;657818;-91
2022/08/28 14:15:48;;;;;;;15.10;9.90;;;22.60;99.90;;;;;;4425110;28;657775;-91
2022/08/28 14:18:35;;;;;;;13.13;9.23;;;22.50;99.90;;;;;;4395378;28;657624;-91
2022/08/28 14:21:23;;;;;;;14.43;10.30;;;22.20;99.90;;;;;;4416217;28;657700;-91
2022/08/28 14:24:12;;;;;;;16.77;10.13;;;21.60;99.90;;;;;;4412252;28;658482;-90
2022/08/28 14:26:59;;;;;;;16.20;9.90;;;21.50;99.90;;;;;;4429568;28;658607;-91
2022/08/28 14:29:47;;;;;;;15.13;9.60;;;21.40;99.90;;;;;;4391869;28;657456;-92